Time;durP1;ratioP1;P1;durP2;ratioP2;P2;SDS_P1;SDS_P2;PMS_P1;PMS_P2;Temp;Humidity;BMP_temperature;BMP_pressure;BME280_temperature;BME280_humidity;BME280_pressure;Samples;Min_cycle;Max_cycle;Signal;HPM_P1;HPM_P2
2023/08/26 00:01:32;;;;;;;30.15;25.25;;;18.10;99.90;;;;;;5050292;28;20061;-51
2023/08/26 00:03:58;;;;;;;33.22;24.65;;;18.10;99.90;;;;;;5049516;28;20032;-52
2023/08/26 00:06:23;;;;;;;27.70;24.63;;;18.10;99.90;;;;;;5049891;28;20052;-51
2023/08/26 00:08:51;;;;;;;27.30;22.65;;;18.00;99.90;;;;;;5048321;28;20497;-51
2023/08/26 00:11:17;;;;;;;27.65;22.67;;;18.00;99.90;;;;;;5049116;28;20580;-53
2023/08/26 00:13:43;;;;;;;32.85;24.38;;;18.00;99.90;;;;;;5049493;28;20136;-51
2023/08/26 00:16:08;;;;;;;30.05;22.25;;;18.00;99.90;;;;;;5049637;28;20075;-52
2023/08/26 00:18:34;;;;;;;29.70;22.27;;;18.00;99.90;;;;;;5043503;28;20060;-53
2023/08/26 00:21:00;;;;;;;23.38;20.73;;;17.90;99.90;;;;;;5046885;28;20500;-55
2023/08/26 00:23:26;;;;;;;25.92;20.88;;;18.00;99.90;;;;;;5049443;28;20463;-55
2023/08/26 00:25:52;;;;;;;29.23;20.13;;;18.00;99.90;;;;;;5049292;28;20060;-52
2023/08/26 00:28:17;;;;;;;25.15;20.05;;;18.00;99.90;;;;;;5045472;28;20652;-51
2023/08/26 00:30:44;;;;;;;25.15;19.80;;;18.00;99.90;;;;;;5048251;28;20075;-51
2023/08/26 00:33:09;;;;;;;22.67;17.65;;;17.90;99.90;;;;;;5048175;28;20037;-51
2023/08/26 00:35:37;;;;;;;22.05;17.83;;;17.90;99.90;;;;;;5048368;28;20049;-52
2023/08/26 00:38:03;;;;;;;21.08;16.73;;;17.80;99.90;;;;;;5046762;28;20037;-52
2023/08/26 00:40:30;;;;;;;19.35;16.63;;;17.80;99.90;;;;;;5046950;28;20045;-55
2023/08/26 00:42:56;;;;;;;17.83;15.93;;;17.80;99.90;;;;;;5045536;28;20071;-56
2023/08/26 00:45:22;;;;;;;23.85;16.20;;;17.80;99.90;;;;;;5045652;28;20037;-52
2023/08/26 00:47:48;;;;;;;22.27;16.23;;;17.70;99.90;;;;;;5047736;28;20090;-51
2023/08/26 00:50:13;;;;;;;23.33;16.33;;;17.70;99.90;;;;;;5048382;28;20033;-51
2023/08/26 00:52:39;;;;;;;17.73;15.82;;;17.70;99.90;;;;;;5048914;28;20190;-55
2023/08/26 00:55:07;;;;;;;15.07;13.48;;;17.70;99.90;;;;;;5048405;28;20044;-54
2023/08/26 00:57:33;;;;;;;14.93;13.18;;;17.70;99.90;;;;;;5046626;28;20048;-52
2023/08/26 00:59:58;;;;;;;21.33;15.57;;;17.60;99.90;;;;;;5048199;28;20032;-53
2023/08/26 01:02:24;;;;;;;15.60;13.73;;;17.60;99.90;;;;;;5048580;28;20044;-53
2023/08/26 01:04:50;;;;;;;14.27;12.77;;;17.60;99.90;;;;;;5048557;28;20098;-53
2023/08/26 01:07:16;;;;;;;16.23;12.70;;;17.50;99.90;;;;;;5048711;28;20032;-53
2023/08/26 01:09:41;;;;;;;20.17;13.70;;;17.60;99.90;;;;;;5047408;28;20047;-51
2023/08/26 01:12:16;;;;;;;16.77;12.20;;;17.50;99.90;;;;;;5048873;28;20040;-51
2023/08/26 01:15:05;;;;;;;18.75;11.43;;;17.50;99.90;;;;;;5046340;28;20186;-51
2023/08/26 01:17:31;;;;;;;17.90;11.82;;;17.40;99.90;;;;;;5049024;28;20040;-53
2023/08/26 01:19:58;;;;;;;14.43;11.30;;;17.40;99.90;;;;;;5047631;28;20041;-54
2023/08/26 01:22:28;;;;;;;12.25;10.98;;;17.40;99.90;;;;;;5047577;28;20159;-51
2023/08/26 01:24:55;;;;;;;12.82;11.50;;;17.40;99.90;;;;;;5048292;28;20029;-51
2023/08/26 01:27:20;;;;;;;11.85;10.63;;;17.40;99.90;;;;;;5047770;28;20041;-51
2023/08/26 01:29:46;;;;;;;16.08;12.02;;;17.30;99.90;;;;;;5047212;28;20670;-51
2023/08/26 01:32:17;;;;;;;13.40;11.52;;;17.30;99.90;;;;;;5048630;28;20128;-52
2023/08/26 01:34:54;;;;;;;15.57;10.70;;;17.30;99.90;;;;;;5047676;28;20569;-51
2023/08/26 01:37:22;;;;;;;12.70;10.52;;;17.20;99.90;;;;;;5048782;28;20029;-51
2023/08/26 01:39:50;;;;;;;12.90;11.60;;;17.10;99.90;;;;;;5047429;28;20060;-52
2023/08/26 01:42:19;;;;;;;17.48;12.32;;;17.10;99.90;;;;;;5048500;28;20044;-53
2023/08/26 01:44:46;;;;;;;14.48;11.27;;;17.00;99.90;;;;;;5047686;28;20414;-52
2023/08/26 01:47:12;;;;;;;18.20;11.60;;;17.00;99.90;;;;;;5047728;28;20029;-55
2023/08/26 01:49:37;;;;;;;14.43;10.63;;;16.90;99.90;;;;;;5046947;28;20041;-53
2023/08/26 01:52:03;;;;;;;12.50;10.30;;;16.90;99.90;;;;;;5048266;28;20032;-51
2023/08/26 01:54:29;;;;;;;15.38;11.63;;;16.90;99.90;;;;;;5047809;28;20160;-52
2023/08/26 01:56:54;;;;;;;13.52;11.95;;;16.90;99.90;;;;;;5030003;28;20036;-53
2023/08/26 01:59:20;;;;;;;12.32;9.88;;;16.80;99.90;;;;;;5047423;28;20036;-54
2023/08/26 02:01:45;;;;;;;12.88;9.40;;;16.80;99.90;;;;;;5047788;28;20574;-51
2023/08/26 02:04:11;;;;;;;17.40;11.68;;;16.70;99.90;;;;;;5047754;28;20040;-51
2023/08/26 02:06:40;;;;;;;10.98;7.90;;;16.70;99.90;;;;;;5048274;28;20417;-51
2023/08/26 02:09:06;;;;;;;19.17;9.05;;;16.70;99.90;;;;;;5046849;28;20052;-51
2023/08/26 02:11:32;;;;;;;10.32;9.27;;;16.60;99.90;;;;;;5048123;28;20490;-51
2023/08/26 02:13:58;;;;;;;11.77;9.50;;;16.60;99.90;;;;;;5047622;28;20029;-52
2023/08/26 02:16:23;;;;;;;13.68;10.55;;;16.50;99.90;;;;;;5047561;28;20414;-51
2023/08/26 02:18:49;;;;;;;14.02;10.07;;;16.50;99.90;;;;;;5046677;28;20123;-53
2023/08/26 02:21:14;;;;;;;9.63;8.65;;;16.50;99.90;;;;;;5046922;28;20033;-51
2023/08/26 02:23:40;;;;;;;11.57;9.55;;;16.50;99.90;;;;;;5047032;28;20044;-52
2023/08/26 02:26:06;;;;;;;14.68;10.32;;;16.50;99.90;;;;;;5047915;28;20071;-53
2023/08/26 02:28:31;;;;;;;10.55;9.55;;;16.50;99.90;;;;;;5047022;28;20086;-52
2023/08/26 02:30:57;;;;;;;11.48;9.38;;;16.50;99.90;;;;;;5029799;28;20072;-51
2023/08/26 02:33:24;;;;;;;15.80;10.85;;;16.40;99.90;;;;;;5047719;28;20911;-51
2023/08/26 02:35:50;;;;;;;13.23;11.40;;;16.40;99.90;;;;;;5051524;28;20072;-53
2023/08/26 02:38:15;;;;;;;10.88;9.60;;;16.40;99.90;;;;;;5051446;28;20098;-51
2023/08/26 02:40:41;;;;;;;9.43;8.48;;;16.40;99.90;;;;;;5051189;28;20079;-52
2023/08/26 02:43:07;;;;;;;10.63;9.60;;;16.50;99.90;;;;;;5051326;28;20033;-52
2023/08/26 02:45:32;;;;;;;14.00;10.05;;;16.50;99.90;;;;;;5051092;28;20037;-52
2023/08/26 02:47:58;;;;;;;13.05;10.65;;;16.40;99.90;;;;;;5050765;28;20072;-53
2023/08/26 02:50:24;;;;;;;14.02;10.30;;;16.40;99.90;;;;;;5048911;28;20048;-51
2023/08/26 02:52:50;;;;;;;12.30;9.40;;;16.30;99.90;;;;;;5050765;28;20032;-52
2023/08/26 02:55:16;;;;;;;;;;;16.40;99.90;;;;;;5050269;28;20453;-50
2023/08/26 02:57:42;;;;;;;12.60;9.20;;;16.40;99.90;;;;;;5050694;28;19920;-52
2023/08/26 03:00:08;;;;;;;;;;;16.40;99.90;;;;;;5050197;28;20069;-51
2023/08/26 03:02:34;;;;;;;12.38;9.85;;;16.40;99.90;;;;;;5033307;28;19971;-51
2023/08/26 03:04:59;;;;;;;;;;;16.40;99.90;;;;;;5051207;28;20116;-51
2023/08/26 03:07:25;;;;;;;10.23;9.27;;;16.40;99.90;;;;;;5051206;28;20003;-52
2023/08/26 03:09:51;;;;;;;9.50;7.50;;;16.40;99.90;;;;;;5032084;28;20091;-51
2023/08/26 03:12:16;;;;;;;13.82;8.65;;;16.40;99.90;;;;;;5050900;28;20056;-51
2023/08/26 03:14:42;;;;;;;14.15;9.32;;;16.40;99.90;;;;;;5050163;28;20040;-52
2023/08/26 03:17:08;;;;;;;11.35;8.43;;;16.40;99.90;;;;;;5033039;28;20041;-51
2023/08/26 03:19:33;;;;;;;11.80;9.05;;;16.30;99.90;;;;;;5050055;28;20045;-51
2023/08/26 03:21:59;;;;;;;9.65;8.73;;;16.30;99.90;;;;;;5050546;28;20477;-54
2023/08/26 03:24:26;;;;;;;12.00;9.43;;;16.30;99.90;;;;;;5050192;28;20041;-52
2023/08/26 03:26:51;;;;;;;12.25;9.20;;;16.20;99.90;;;;;;5049978;28;20036;-51
2023/08/26 03:29:17;;;;;;;10.55;8.38;;;16.20;99.90;;;;;;5048937;28;20045;-51
2023/08/26 03:31:44;;;;;;;14.23;7.97;;;16.20;99.90;;;;;;5050591;28;20033;-52
2023/08/26 03:34:09;;;;;;;12.55;9.20;;;16.20;99.90;;;;;;5050301;28;20064;-53
2023/08/26 03:36:35;;;;;;;17.52;10.27;;;16.20;99.90;;;;;;5050251;28;20119;-53
2023/08/26 03:39:00;;;;;;;11.38;9.60;;;16.10;99.90;;;;;;5049697;28;20041;-51
2023/08/26 03:41:26;;;;;;;9.40;8.25;;;16.20;99.90;;;;;;5050170;28;20451;-51
2023/08/26 03:43:52;;;;;;;9.15;8.32;;;16.10;99.90;;;;;;5049564;28;20115;-51
2023/08/26 03:46:18;;;;;;;11.65;9.90;;;16.10;99.90;;;;;;5050094;28;20402;-54
2023/08/26 03:48:43;;;;;;;6.43;5.88;;;16.10;99.90;;;;;;5049598;28;20044;-55
2023/08/26 03:51:09;;;;;;;10.13;6.60;;;16.10;99.90;;;;;;5050071;28;20132;-53
2023/08/26 03:53:35;;;;;;;10.40;6.63;;;16.00;99.90;;;;;;5049807;28;20041;-51
2023/08/26 03:56:01;;;;;;;9.02;7.40;;;16.00;99.90;;;;;;5032411;28;20037;-51
2023/08/26 03:58:27;;;;;;;;;;;15.90;99.90;;;;;;5032092;28;20166;-51
2023/08/26 04:01:01;;;;;;;11.23;8.40;;;15.90;99.90;;;;;;5031743;28;19999;-54
2023/08/26 04:03:26;;;;;;;13.23;9.40;;;15.90;99.90;;;;;;5049711;28;20037;-54
2023/08/26 04:05:59;;;;;;;11.63;8.90;;;15.90;99.90;;;;;;5050131;28;20048;-51
2023/08/26 04:08:25;;;;;;;10.63;8.27;;;15.90;99.90;;;;;;5049463;28;20044;-51
2023/08/26 04:10:58;;;;;;;16.92;9.32;;;15.90;99.90;;;;;;5031430;28;20040;-52
2023/08/26 04:13:25;;;;;;;12.82;10.77;;;16.00;99.90;;;;;;5046865;28;20186;-54
2023/08/26 04:16:02;;;;;;;16.83;9.55;;;16.00;99.90;;;;;;5049694;28;20029;-52
2023/08/26 04:18:29;;;;;;;15.45;9.57;;;15.90;99.90;;;;;;5049768;28;20086;-51
2023/08/26 04:20:55;;;;;;;14.68;9.55;;;15.90;99.90;;;;;;5049103;28;20041;-51
2023/08/26 04:23:20;;;;;;;12.02;9.27;;;15.90;99.90;;;;;;5048878;28;20032;-52
2023/08/26 04:25:46;;;;;;;12.30;9.63;;;15.90;99.90;;;;;;5049215;28;20441;-51
2023/08/26 04:28:12;;;;;;;15.02;10.18;;;15.90;99.90;;;;;;5049399;28;20041;-53
2023/08/26 04:30:38;;;;;;;14.18;9.75;;;15.80;99.90;;;;;;5048700;28;20501;-52
2023/08/26 04:33:04;;;;;;;13.93;10.50;;;15.80;99.90;;;;;;5031279;28;20490;-55
2023/08/26 04:35:30;;;;;;;11.85;9.32;;;15.80;99.90;;;;;;5048822;28;20041;-54
2023/08/26 04:37:56;;;;;;;15.98;10.02;;;15.80;99.90;;;;;;5048369;28;20095;-56
2023/08/26 04:40:22;;;;;;;13.63;10.63;;;15.90;99.90;;;;;;5048890;28;20045;-51
2023/08/26 04:42:47;;;;;;;14.82;9.98;;;15.80;99.90;;;;;;5049625;28;20045;-52
2023/08/26 04:45:16;;;;;;;13.30;9.38;;;15.90;99.90;;;;;;5049077;28;20056;-51
2023/08/26 04:47:42;;;;;;;12.35;9.43;;;15.90;99.90;;;;;;5047186;28;20367;-52
2023/08/26 04:50:08;;;;;;;18.45;10.52;;;15.90;99.90;;;;;;5048587;28;20290;-51
2023/08/26 04:52:34;;;;;;;15.30;10.43;;;15.90;99.90;;;;;;5048639;28;20068;-52
2023/08/26 04:54:59;;;;;;;15.90;9.88;;;15.90;99.90;;;;;;5048656;28;20060;-52
2023/08/26 04:57:25;;;;;;;21.67;10.65;;;15.80;99.90;;;;;;5048112;28;20040;-52
2023/08/26 04:59:51;;;;;;;14.95;10.05;;;15.90;99.90;;;;;;5048209;28;20039;-54
2023/08/26 05:02:17;;;;;;;19.98;10.98;;;15.90;99.90;;;;;;5047582;28;20049;-51
2023/08/26 05:04:44;;;;;;;19.65;13.20;;;15.90;99.90;;;;;;5047008;28;20051;-53
2023/08/26 05:07:10;;;;;;;18.65;11.15;;;15.80;99.90;;;;;;5046698;28;20037;-51
2023/08/26 05:09:36;;;;;;;19.13;10.75;;;15.80;99.90;;;;;;5044189;28;20045;-51
2023/08/26 05:12:02;;;;;;;14.65;11.05;;;15.80;99.90;;;;;;5047264;28;20029;-51
2023/08/26 05:14:28;;;;;;;14.25;10.85;;;15.80;99.90;;;;;;5045830;28;20126;-53
2023/08/26 05:16:53;;;;;;;19.65;10.75;;;15.90;99.90;;;;;;5048503;28;20486;-51
2023/08/26 05:19:19;;;;;;;13.60;11.18;;;15.80;99.90;;;;;;5048033;28;20041;-52
2023/08/26 05:21:44;;;;;;;16.60;11.32;;;15.80;99.90;;;;;;5047878;28;20041;-51
2023/08/26 05:24:10;;;;;;;18.67;11.70;;;15.80;99.90;;;;;;5048228;28;20041;-54
2023/08/26 05:26:37;;;;;;;15.32;11.77;;;15.80;99.90;;;;;;5048445;28;20040;-51
2023/08/26 05:29:04;;;;;;;19.90;12.25;;;15.80;99.90;;;;;;5047563;28;20040;-50
2023/08/26 05:31:29;;;;;;;17.23;12.98;;;15.80;99.90;;;;;;5048746;28;20037;-51
2023/08/26 05:33:55;;;;;;;23.92;12.65;;;15.80;99.90;;;;;;5048065;28;20463;-53
2023/08/26 05:36:21;;;;;;;16.92;13.23;;;15.90;99.90;;;;;;5047475;28;20036;-52
2023/08/26 05:38:47;;;;;;;19.40;14.13;;;15.90;99.90;;;;;;5047842;28;20037;-53
2023/08/26 05:41:13;;;;;;;18.27;13.68;;;15.90;99.90;;;;;;5048576;28;20033;-50
2023/08/26 05:43:38;;;;;;;19.70;14.55;;;15.90;99.90;;;;;;5048295;28;20544;-52
2023/08/26 05:46:04;;;;;;;17.92;13.95;;;15.90;99.90;;;;;;5048563;28;20497;-51
2023/08/26 05:48:29;;;;;;;16.48;14.60;;;15.90;99.90;;;;;;5046487;28;20037;-54
2023/08/26 05:50:59;;;;;;;17.67;13.38;;;15.90;99.90;;;;;;5044081;28;20044;-50
2023/08/26 05:53:27;;;;;;;23.90;16.80;;;15.90;99.90;;;;;;5042990;28;20033;-50
2023/08/26 05:55:53;;;;;;;21.08;17.65;;;15.90;99.90;;;;;;5043474;28;20305;-51
2023/08/26 05:58:18;;;;;;;20.98;16.70;;;15.90;99.90;;;;;;5043503;28;20552;-52
2023/08/26 06:00:44;;;;;;;19.60;16.27;;;15.90;99.90;;;;;;5043995;28;20402;-52
2023/08/26 06:03:09;;;;;;;19.85;17.75;;;15.90;99.90;;;;;;5043876;28;20056;-51
2023/08/26 06:05:35;;;;;;;19.15;17.15;;;15.90;99.90;;;;;;5040596;28;20409;-52
2023/08/26 06:08:01;;;;;;;20.65;15.93;;;15.90;99.90;;;;;;5043592;28;20491;-51
2023/08/26 06:10:26;;;;;;;23.05;18.15;;;15.90;99.90;;;;;;5050367;28;20024;-54
2023/08/26 06:12:52;;;;;;;23.00;18.88;;;15.90;99.90;;;;;;5050234;28;20025;-51
2023/08/26 06:15:17;;;;;;;24.52;18.70;;;15.80;99.90;;;;;;5050349;28;20033;-53
2023/08/26 06:17:43;;;;;;;21.52;18.73;;;15.80;99.90;;;;;;5047082;28;20033;-52
2023/08/26 06:20:09;;;;;;;23.50;18.92;;;15.80;99.90;;;;;;5049185;28;20033;-51
2023/08/26 06:22:35;;;;;;;22.67;17.90;;;15.80;99.90;;;;;;5050862;28;20411;-50
2023/08/26 06:25:00;;;;;;;20.35;17.50;;;15.80;99.90;;;;;;5051522;28;21208;-51
2023/08/26 06:27:27;;;;;;;25.95;18.13;;;15.70;99.90;;;;;;5051543;28;20386;-50
2023/08/26 06:29:58;;;;;;;24.05;17.80;;;15.80;99.90;;;;;;5051303;28;20045;-51
2023/08/26 06:32:24;;;;;;;28.50;18.30;;;15.80;99.90;;;;;;5051755;28;20621;-54
2023/08/26 06:34:50;;;;;;;25.35;19.02;;;15.80;99.90;;;;;;5050551;28;20044;-53
2023/08/26 06:37:16;;;;;;;22.33;18.80;;;15.70;99.90;;;;;;5046101;28;20123;-51
2023/08/26 06:39:42;;;;;;;26.55;16.80;;;15.70;99.90;;;;;;5050812;28;20124;-51
2023/08/26 06:42:08;;;;;;;21.95;17.70;;;15.70;99.90;;;;;;5051579;28;20055;-51
2023/08/26 06:44:33;;;;;;;27.30;15.70;;;15.70;99.90;;;;;;5051366;28;20543;-51
2023/08/26 06:46:59;;;;;;;31.45;15.95;;;15.60;99.90;;;;;;5051456;28;20083;-51
2023/08/26 06:49:25;;;;;;;26.63;15.85;;;15.60;99.90;;;;;;5047942;28;20092;-51
2023/08/26 06:51:51;;;;;;;31.77;15.45;;;15.60;99.90;;;;;;5051705;28;20053;-51
2023/08/26 06:54:16;;;;;;;26.17;14.65;;;15.60;99.90;;;;;;5050891;28;20472;-53
2023/08/26 06:56:42;;;;;;;23.00;14.23;;;15.50;99.90;;;;;;5051403;28;20059;-53
2023/08/26 06:59:08;;;;;;;19.48;13.45;;;15.50;99.90;;;;;;5050109;28;20036;-52
2023/08/26 07:01:34;;;;;;;18.23;13.57;;;15.50;99.90;;;;;;5051197;28;20061;-51
2023/08/26 07:04:04;;;;;;;19.48;14.38;;;15.50;99.90;;;;;;5050217;28;20076;-51
2023/08/26 07:06:30;;;;;;;23.17;15.95;;;15.50;99.90;;;;;;5051289;28;20052;-51
2023/08/26 07:08:56;;;;;;;30.17;17.38;;;15.50;99.90;;;;;;5050172;28;20033;-54
2023/08/26 07:11:21;;;;;;;25.15;17.25;;;15.50;99.90;;;;;;5051234;28;20029;-54
2023/08/26 07:13:47;;;;;;;27.65;16.85;;;15.50;99.90;;;;;;5050361;28;20098;-53
2023/08/26 07:16:13;;;;;;;26.55;18.00;;;15.50;99.90;;;;;;5050912;28;20433;-52
2023/08/26 07:18:38;;;;;;;22.40;18.67;;;15.60;99.90;;;;;;5049616;28;20041;-51
2023/08/26 07:21:04;;;;;;;25.95;16.15;;;15.60;99.90;;;;;;5050178;28;20059;-53
2023/08/26 07:23:29;;;;;;;23.10;17.05;;;15.60;99.90;;;;;;5050497;28;20433;-55
2023/08/26 07:25:55;;;;;;;28.13;17.60;;;15.60;99.90;;;;;;5032692;28;20041;-53
2023/08/26 07:28:20;;;;;;;28.10;15.95;;;15.60;99.90;;;;;;5050519;28;20402;-52
2023/08/26 07:30:46;;;;;;;21.17;16.42;;;15.60;99.90;;;;;;5049716;28;20036;-52
2023/08/26 07:33:11;;;;;;;22.50;16.60;;;15.60;99.90;;;;;;5046151;28;20527;-51
2023/08/26 07:35:37;;;;;;;17.48;15.48;;;15.60;99.90;;;;;;5050186;28;20033;-52
2023/08/26 07:38:03;;;;;;;20.30;15.77;;;15.50;99.90;;;;;;5049337;28;20087;-54
2023/08/26 07:40:29;;;;;;;29.98;16.45;;;15.50;99.90;;;;;;5044605;28;20410;-52
2023/08/26 07:42:55;;;;;;;18.23;14.73;;;15.50;99.90;;;;;;5050321;28;20037;-53
2023/08/26 07:45:20;;;;;;;;;;;15.50;99.90;;;;;;5050535;28;20508;-53
2023/08/26 07:47:46;;;;;;;22.33;16.95;;;15.50;99.90;;;;;;5030121;28;19952;-50
2023/08/26 07:50:12;;;;;;;22.10;16.88;;;15.50;99.90;;;;;;5047612;28;20033;-51
2023/08/26 07:52:38;;;;;;;18.30;15.52;;;15.50;99.90;;;;;;5049942;28;20230;-51
2023/08/26 07:55:05;;;;;;;23.02;15.60;;;15.50;99.90;;;;;;5042474;28;20119;-54
2023/08/26 07:57:31;;;;;;;20.85;16.13;;;15.50;99.90;;;;;;5042758;28;20033;-50
2023/08/26 07:59:56;;;;;;;21.27;18.70;;;15.50;99.90;;;;;;5047414;28;20517;-52
2023/08/26 08:02:22;;;;;;;23.27;15.93;;;15.60;99.90;;;;;;5044878;28;20097;-53
2023/08/26 08:04:47;;;;;;;24.70;16.77;;;15.60;99.90;;;;;;5048928;28;20055;-55
2023/08/26 08:07:13;;;;;;;18.30;15.85;;;15.70;99.90;;;;;;5044969;28;20043;-53
2023/08/26 08:09:39;;;;;;;20.42;16.88;;;15.70;99.90;;;;;;5040131;28;20041;-51
2023/08/26 08:12:05;;;;;;;21.92;15.80;;;15.80;99.90;;;;;;5049012;28;20051;-54
2023/08/26 08:14:31;;;;;;;17.77;13.70;;;15.80;99.90;;;;;;5047119;28;20098;-53
2023/08/26 08:16:56;;;;;;;21.20;14.38;;;15.90;99.90;;;;;;5042649;28;20045;-51
2023/08/26 08:19:24;;;;;;;21.48;15.98;;;16.00;99.90;;;;;;5043027;28;20032;-51
2023/08/26 08:21:49;;;;;;;18.23;12.95;;;16.00;99.90;;;;;;5047470;28;20086;-51
2023/08/26 08:24:15;;;;;;;17.65;14.05;;;16.10;99.90;;;;;;5048572;28;20029;-51
2023/08/26 08:26:43;;;;;;;20.20;13.60;;;16.10;99.90;;;;;;5038612;28;20053;-52
2023/08/26 08:29:10;;;;;;;14.95;13.45;;;16.30;99.90;;;;;;5044033;28;20528;-53
2023/08/26 08:31:36;;;;;;;19.40;14.90;;;16.50;99.90;;;;;;5029721;28;20036;-52
2023/08/26 08:34:03;;;;;;;17.52;14.73;;;16.60;99.90;;;;;;5048873;28;20098;-54
2023/08/26 08:36:29;;;;;;;19.02;12.98;;;16.80;99.90;;;;;;5046836;28;20033;-51
2023/08/26 08:38:56;;;;;;;13.63;11.68;;;16.90;99.90;;;;;;5025447;28;20045;-52
2023/08/26 08:41:22;;;;;;;13.65;12.32;;;16.90;99.90;;;;;;5046850;28;20087;-51
2023/08/26 08:43:51;;;;;;;22.27;12.85;;;17.00;99.90;;;;;;5042247;28;20044;-52
2023/08/26 08:46:18;;;;;;;17.40;13.25;;;17.20;99.90;;;;;;5048682;28;20375;-52
2023/08/26 08:48:44;;;;;;;16.77;11.95;;;17.40;99.90;;;;;;5047261;28;20143;-53
2023/08/26 08:51:11;;;;;;;10.63;9.60;;;17.40;99.90;;;;;;5048654;28;20075;-52
2023/08/26 08:53:45;;;;;;;13.98;11.40;;;17.40;99.90;;;;;;5048746;28;20067;-51
2023/08/26 08:56:12;;;;;;;16.02;10.82;;;17.40;99.90;;;;;;5046316;28;20037;-54
2023/08/26 08:58:39;;;;;;;15.75;9.43;;;17.60;99.90;;;;;;5041220;28;20048;-55
2023/08/26 09:01:05;;;;;;;18.10;9.40;;;17.70;99.90;;;;;;5048639;28;20056;-52
2023/08/26 09:03:31;;;;;;;12.15;8.90;;;17.80;99.90;;;;;;5048466;28;20037;-54
2023/08/26 09:05:56;;;;;;;17.48;8.93;;;17.80;99.90;;;;;;5047440;28;20041;-55
2023/08/26 09:08:24;;;;;;;8.93;7.90;;;18.00;99.90;;;;;;5041551;28;20060;-53
2023/08/26 09:10:52;;;;;;;13.50;8.80;;;18.10;99.90;;;;;;5043644;28;20414;-54
2023/08/26 09:13:18;;;;;;;13.13;8.98;;;18.20;99.90;;;;;;5041852;28;20086;-51
2023/08/26 09:15:43;;;;;;;10.98;7.75;;;18.30;99.90;;;;;;5042585;28;20464;-51
2023/08/26 09:18:13;;;;;;;9.60;7.40;;;18.30;99.90;;;;;;5040867;28;20059;-51
2023/08/26 09:20:40;;;;;;;12.82;6.15;;;18.30;99.90;;;;;;5044442;28;20056;-54
2023/08/26 09:23:06;;;;;;;16.33;6.43;;;18.30;99.90;;;;;;5043685;28;20064;-54
2023/08/26 09:25:32;;;;;;;14.48;5.40;;;18.30;99.90;;;;;;5044560;28;20479;-56
2023/08/26 09:27:58;;;;;;;9.38;5.63;;;18.40;99.90;;;;;;5046922;28;20041;-52
2023/08/26 09:30:24;;;;;;;;;;;18.50;99.90;;;;;;5048106;28;20033;-51
2023/08/26 09:32:52;;;;;;;8.40;5.28;;;18.70;99.90;;;;;;5048694;28;20034;-52
2023/08/26 09:35:18;;;;;;;13.70;5.53;;;18.70;99.90;;;;;;5030073;28;20041;-53
2023/08/26 09:37:46;;;;;;;7.90;4.40;;;18.70;99.90;;;;;;5048241;28;20140;-54
2023/08/26 09:40:13;;;;;;;13.75;4.90;;;18.80;99.90;;;;;;5045721;28;20490;-52
2023/08/26 09:42:39;;;;;;;8.32;3.67;;;18.80;99.90;;;;;;5046114;28;20209;-57
2023/08/26 09:45:14;;;;;;;7.05;4.13;;;18.80;99.90;;;;;;5043836;28;20509;-55
2023/08/26 09:47:40;;;;;;;11.93;4.30;;;18.90;99.90;;;;;;5043702;28;20045;-54
2023/08/26 09:50:07;;;;;;;8.13;3.92;;;19.00;99.90;;;;;;5044606;28;20041;-53
2023/08/26 09:52:48;;;;;;;12.75;3.72;;;19.10;99.90;;;;;;5046965;28;20075;-54
2023/08/26 09:55:14;;;;;;;4.35;2.55;;;19.20;99.90;;;;;;5044173;28;20556;-54
2023/08/26 09:57:41;;;;;;;7.13;3.38;;;19.40;99.90;;;;;;5047483;28;20086;-52
2023/08/26 10:00:10;;;;;;;6.57;2.85;;;19.50;99.90;;;;;;5041569;28;20453;-55
2023/08/26 10:02:49;;;;;;;7.78;2.47;;;19.60;99.90;;;;;;5045433;28;20123;-53
2023/08/26 10:05:20;;;;;;;6.85;2.28;;;19.70;99.90;;;;;;5039687;28;20809;-52
2023/08/26 10:07:50;;;;;;;5.65;2.05;;;19.70;99.90;;;;;;5038478;28;20107;-55
2023/08/26 10:10:26;;;;;;;4.72;1.27;;;19.80;99.90;;;;;;5048595;28;20108;-53
2023/08/26 10:13:01;;;;;;;13.60;1.90;;;19.80;99.90;;;;;;5047951;28;20029;-52
2023/08/26 10:15:30;;;;;;;9.15;1.77;;;19.90;99.90;;;;;;5056242;28;20051;-53
2023/08/26 10:17:57;;;;;;;7.22;1.20;;;20.00;99.90;;;;;;5051012;28;20122;-53
2023/08/26 10:20:23;;;;;;;5.43;0.98;;;20.10;99.90;;;;;;5065448;28;20045;-55
2023/08/26 10:22:49;;;;;;;5.25;0.82;;;20.00;99.90;;;;;;5047571;28;20112;-53
2023/08/26 10:25:15;;;;;;;;;;;20.10;99.90;;;;;;5031588;28;20038;-52
2023/08/26 10:27:41;;;;;;;4.88;1.38;;;20.10;99.90;;;;;;5038464;28;19975;-55
2023/08/26 10:30:08;;;;;;;7.50;1.10;;;20.10;99.90;;;;;;5038726;28;20534;-53
2023/08/26 10:32:43;;;;;;;2.92;1.30;;;20.20;99.90;;;;;;5045892;28;20060;-56
2023/08/26 10:35:13;;;;;;;5.40;1.00;;;20.30;99.90;;;;;;5041168;28;20043;-52
2023/08/26 10:37:40;;;;;;;3.33;1.08;;;20.40;99.90;;;;;;5043135;28;20037;-52
2023/08/26 10:40:12;;;;;;;3.63;0.90;;;20.50;99.90;;;;;;5041143;28;20403;-54
2023/08/26 10:42:38;;;;;;;3.53;1.55;;;20.40;99.90;;;;;;5038090;28;20422;-54
2023/08/26 10:45:14;;;;;;;5.28;1.20;;;20.20;99.90;;;;;;5047052;28;20044;-55
2023/08/26 10:47:49;;;;;;;7.80;1.08;;;20.10;99.90;;;;;;5046328;28;20049;-54
2023/08/26 10:50:20;;;;;;;3.60;1.08;;;20.10;99.90;;;;;;5029301;28;20048;-52
2023/08/26 10:52:52;;;;;;;2.50;0.68;;;20.10;99.90;;;;;;5042902;28;20091;-52
2023/08/26 10:55:32;;;;;;;3.38;1.20;;;20.20;99.90;;;;;;5031346;28;20038;-52
2023/08/26 10:58:11;;;;;;;3.35;0.85;;;20.40;99.90;;;;;;5039595;28;20513;-52
2023/08/26 11:00:38;;;;;;;3.35;0.93;;;20.60;99.90;;;;;;5049287;28;20048;-57
2023/08/26 11:03:08;;;;;;;6.57;0.90;;;20.50;99.90;;;;;;5048758;28;20080;-56
2023/08/26 11:05:36;;;;;;;7.72;1.35;;;20.40;99.90;;;;;;5042148;28;20536;-54
2023/08/26 11:08:02;;;;;;;3.08;0.77;;;20.30;99.90;;;;;;5047011;28;20051;-55
2023/08/26 11:10:47;;;;;;;2.92;0.68;;;20.20;99.90;;;;;;5045454;28;20034;-54
2023/08/26 11:13:12;;;;;;;6.30;0.82;;;20.20;99.90;;;;;;5042852;28;20037;-56
2023/08/26 11:15:40;;;;;;;3.25;0.77;;;20.10;99.90;;;;;;5044075;28;20032;-55
2023/08/26 11:18:07;;;;;;;4.90;0.88;;;20.10;99.90;;;;;;5037286;28;20037;-53
2023/08/26 11:20:32;;;;;;;1.75;0.30;;;20.10;99.90;;;;;;5046499;28;20051;-57
2023/08/26 11:22:59;;;;;;;3.63;0.50;;;20.30;99.90;;;;;;5040412;28;20041;-54
2023/08/26 11:25:24;;;;;;;;;;;20.50;99.90;;;;;;5045866;28;20072;-55
2023/08/26 11:27:51;;;;;;;2.70;0.65;;;20.70;99.90;;;;;;5041269;28;19960;-53
2023/08/26 11:30:17;;;;;;;1.15;0.40;;;20.90;99.90;;;;;;5049081;28;20033;-56
2023/08/26 11:32:42;;;;;;;;;;;21.00;99.90;;;;;;5047895;28;20033;-56
2023/08/26 11:35:10;;;;;;;2.72;0.30;;;21.10;99.90;;;;;;5036357;28;20410;-55
2023/08/26 11:37:46;;;;;;;3.13;0.40;;;21.00;99.90;;;;;;5040362;28;20037;-54
2023/08/26 11:40:12;;;;;;;2.10;0.38;;;20.90;99.90;;;;;;5044774;28;20501;-53
2023/08/26 11:42:38;;;;;;;3.15;0.40;;;20.90;99.90;;;;;;5042283;28;20128;-53
2023/08/26 11:45:22;;;;;;;;;;;20.90;99.90;;;;;;5043007;28;20116;-53
2023/08/26 11:47:47;;;;;;;1.35;0.38;;;21.00;99.90;;;;;;5035098;28;19978;-54
2023/08/26 11:50:15;;;;;;;;;;;21.00;99.90;;;;;;5041506;28;20025;-55
2023/08/26 11:52:41;;;;;;;2.20;0.30;;;21.20;99.90;;;;;;5046596;28;20378;-57
2023/08/26 11:55:08;;;;;;;;;;;21.30;99.90;;;;;;5045375;28;20178;-55
2023/08/26 11:57:37;;;;;;;3.38;0.30;;;21.50;99.90;;;;;;5043005;28;19925;-56
2023/08/26 12:00:16;;;;;;;0.73;0.25;;;21.50;99.90;;;;;;5034835;28;20038;-55
2023/08/26 12:02:46;;;;;;;2.25;0.20;;;21.60;99.90;;;;;;5038727;28;20120;-54
2023/08/26 12:05:14;;;;;;;3.17;0.30;;;21.60;99.90;;;;;;5031917;28;20127;-54
2023/08/26 12:07:50;;;;;;;1.95;0.40;;;21.40;99.90;;;;;;5042070;28;20049;-57
2023/08/26 12:10:19;;;;;;;2.17;0.30;;;21.20;99.90;;;;;;5043911;28;20087;-52
2023/08/26 12:12:46;;;;;;;1.60;0.20;;;21.10;99.90;;;;;;5040269;28;20730;-55
2023/08/26 12:15:14;;;;;;;3.75;0.40;;;21.10;99.90;;;;;;5040736;28;20029;-55
2023/08/26 12:17:44;;;;;;;7.00;0.30;;;21.10;99.90;;;;;;5036246;28;20033;-57
2023/08/26 12:20:24;;;;;;;2.90;0.40;;;21.20;99.90;;;;;;5035481;28;20403;-53
2023/08/26 12:22:50;;;;;;;4.15;0.30;;;21.30;99.90;;;;;;5031842;28;20080;-56
2023/08/26 12:25:24;;;;;;;1.92;0.40;;;21.40;99.90;;;;;;5046795;28;20533;-56
2023/08/26 12:27:50;;;;;;;3.35;0.28;;;21.40;99.90;;;;;;5034615;28;20037;-54
2023/08/26 12:30:16;;;;;;;;;;;21.40;99.90;;;;;;5038899;28;20033;-56
2023/08/26 12:32:41;;;;;;;2.35;0.30;;;21.40;99.90;;;;;;5040948;28;20374;-55
2023/08/26 12:35:08;;;;;;;;;;;21.50;99.90;;;;;;5046978;28;20036;-53
2023/08/26 12:37:34;;;;;;;3.87;0.43;;;21.60;99.90;;;;;;5050546;28;20537;-55